KGPH

Details ICAO KGPH
Name CLAY COUNTY RGNL
Region United States
Timezone America/Chicago (UTC-5.0)
Plans Departing 6
Arriving 1
Stats Elevation 777 ft / 237 m (AMSL)
Location 39.332509° -94.309647°
Runways 1
Magnetic Variation 1.414° E
Sunrise 2018-05-25 10:57:30 UTC / 2018-05-25 05:57:30 Local
Sunset 2018-05-26 01:33:47 UTC / 2018-05-25 20:33:47 Local
Advertisement - Login to hide

Runways

ID Width Length Bearing (true) Bearing (mag) Surface Threshold Offset Overrun Length
18 100 ft / 30 m 5,512 ft / 1,680 m 187.09° 185.68° Asphalt 0 ft / 0 m 0 ft / 0 m
36 100 ft / 30 m 5,512 ft / 1,680 m 7.09° 5.68° Asphalt 0 ft / 0 m 0 ft / 0 m

Map

Weather


0- 5 10 15 20 25 30 35+ Temperature / ° C

Clouds and Precipitation
Forecast for 2018-05-25 12:00 UTC. Updated 20 minutes ago

Ground ~20,000 ft ~40,000 ft Winds

METAR

KGPH 251135Z AUTO 16006KT 10SM -VCTSRA OVC100 18/17 A2994 RMK AO2 LTG DSNT SE AND S

TAF

Not found

Frequencies

Unicom 122.70 MHz CTAF/UNICOM
Approach 119.00 MHz KANSAS CITY APP/DEP
Clearance 118.20 MHz KANAS CITY
Warning: Do not use this data for real-world aviation or navigation. No guarantee of current accuracy is given.